Time,TemperatureF,DewpointF,PressureIn,WindDirection,WindDirectionDegrees,WindSpeedMPH,WindSpeedGustMPH,Humidity,HourlyPrecipIn,Conditions,Clouds,dailyrainin,SoftwareType,DateUTC
2013-08-12 00:01:00,64.0,-23.0,30.07,South,180,0.0,5.0,0,0.00,,,0.00,Rainwise IP-100,2013-08-12 04:01:00,
2013-08-12 00:06:00,64.0,-23.0,30.06,SW,225,2.0,5.0,0,0.00,,,0.00,Rainwise IP-100,2013-08-12 04:06:00,
2013-08-12 00:11:00,64.0,-23.0,30.06,SSW,202,0.0,3.0,0,0.00,,,0.00,Rainwise IP-100,2013-08-12 04:11:00,
2013-08-12 00:16:00,64.0,-23.0,30.06,SSW,202,1.0,5.0,0,0.00,,,0.00,Rainwise IP-100,2013-08-12 04:16:00,
2013-08-12 00:21:00,64.0,-23.0,30.06,SSW,202,2.0,7.0,0,0.00,,,0.00,Rainwise IP-100,2013-08-12 04:21:00,
2013-08-12 00:26:00,64.0,-23.0,30.06,SW,225,3.0,6.0,0,0.00,,,0.00,Rainwise IP-100,2013-08-12 04:26:00,
2013-08-12 00:31:00,64.0,-23.0,30.06,South,180,0.0,6.0,0,0.00,,,0.00,Rainwise IP-100,2013-08-12 04:31:00,
2013-08-12 00:36:00,64.0,-23.0,30.06,SW,225,0.0,6.0,0,0.00,,,0.00,Rainwise IP-100,2013-08-12 04:36:00,
2013-08-12 00:41:00,64.0,-23.0,30.06,South,180,2.0,4.0,0,0.00,,,0.00,Rainwise IP-100,2013-08-12 04:41:00,
2013-08-12 00:46:00,64.0,-23.0,30.06,SSW,202,2.0,5.0,0,0.00,,,0.00,Rainwise IP-100,2013-08-12 04:46:00,
2013-08-12 00:51:00,64.0,-23.0,30.06,SSW,202,2.0,5.0,0,0.00,,,0.00,Rainwise IP-100,2013-08-12 04:51:00,
2013-08-12 00:56:00,64.0,-23.0,30.05,SSE,157,0.0,4.0,0,0.00,,,0.00,Rainwise IP-100,2013-08-12 04:56:00,
2013-08-12 01:01:00,64.0,-23.0,30.05,SW,225,0.0,3.0,0,0.00,,,0.00,Rainwise IP-100,2013-08-12 05:01:00,
2013-08-12 01:06:00,64.0,-23.0,30.05,SW,225,0.0,5.0,0,0.00,,,0.00,Rainwise IP-100,2013-08-12 05:06:00,
2013-08-12 01:11:00,64.0,-23.0,30.05,SW,225,0.0,3.0,0,0.00,,,0.00,Rainwise IP-100,2013-08-12 05:11:00,
2013-08-12 01:17:00,64.0,-23.0,30.05,SW,225,0.0,4.0,0,0.00,,,0.00,Rainwise IP-100,2013-08-12 05:17:00,
2013-08-12 01:22:00,64.0,-23.0,30.05,SW,225,1.0,3.0,0,0.00,,,0.00,Rainwise IP-100,2013-08-12 05:22:00,
2013-08-12 01:27:00,64.0,-23.0,30.05,SW,225,0.0,3.0,0,0.00,,,0.00,Rainwise IP-100,2013-08-12 05:27:00,
2013-08-12 01:32:00,64.0,-23.0,30.05,SSE,157,0.0,5.0,0,0.00,,,0.00,Rainwise IP-100,2013-08-12 05:32:00,
2013-08-12 01:37:00,64.0,-23.0,30.05,SW,225,0.0,3.0,0,0.00,,,0.00,Rainwise IP-100,2013-08-12 05:37:00,
2013-08-12 01:42:00,64.0,-23.0,30.05,SW,225,0.0,4.0,0,0.00,,,0.00,Rainwise IP-100,2013-08-12 05:42:00,
2013-08-12 01:47:00,64.0,-23.0,30.05,SSW,202,0.0,2.0,0,0.00,,,0.00,Rainwise IP-100,2013-08-12 05:47:00,
2013-08-12 01:52:00,64.0,-23.0,30.05,SW,225,0.0,4.0,0,0.00,,,0.00,Rainwise IP-100,2013-08-12 05:52:00,
2013-08-12 01:57:00,64.0,-23.0,30.05,South,180,0.0,6.0,0,0.00,,,0.00,Rainwise IP-100,2013-08-12 05:57:00,
2013-08-12 02:02:00,64.0,-23.0,30.05,SW,225,0.0,4.0,0,0.00,,,0.00,Rainwise IP-100,2013-08-12 06:02:00,
2013-08-12 02:07:00,64.0,-23.0,30.04,South,180,0.0,4.0,0,0.00,,,0.00,Rainwise IP-100,2013-08-12 06:07:00,
2013-08-12 02:12:00,64.0,-23.0,30.04,SW,225,0.0,6.0,0,0.00,,,0.00,Rainwise IP-100,2013-08-12 06:12:00,
2013-08-12 02:17:00,64.0,-23.0,30.04,SW,225,1.0,6.0,0,0.00,,,0.00,Rainwise IP-100,2013-08-12 06:17:00,
2013-08-12 02:22:00,64.0,-23.0,30.04,SW,225,0.0,4.0,0,0.00,,,0.00,Rainwise IP-100,2013-08-12 06:22:00,
2013-08-12 02:27:00,64.0,-23.0,30.04,WSW,247,0.0,5.0,0,0.00,,,0.00,Rainwise IP-100,2013-08-12 06:27:00,
2013-08-12 02:33:00,64.0,-23.0,30.04,SSW,202,2.0,3.0,0,0.00,,,0.00,Rainwise IP-100,2013-08-12 06:33:00,
2013-08-12 02:38:00,64.0,-23.0,30.04,SSW,202,2.0,7.0,0,0.00,,,0.00,Rainwise IP-100,2013-08-12 06:38:00,
2013-08-12 02:43:00,64.0,-23.0,30.04,SW,225,2.0,5.0,0,0.00,,,0.00,Rainwise IP-100,2013-08-12 06:43:00,
2013-08-12 02:48:00,64.0,-23.0,30.04,SW,225,2.0,7.0,0,0.00,,,0.00,Rainwise IP-100,2013-08-12 06:48:00,
2013-08-12 02:53:00,64.0,-23.0,30.04,SW,225,0.0,7.0,0,0.00,,,0.00,Rainwise IP-100,2013-08-12 06:53:00,
2013-08-12 02:58:00,64.0,-23.0,30.04,SW,225,0.0,5.0,0,0.00,,,0.00,Rainwise IP-100,2013-08-12 06:58:00,
2013-08-12 03:03:00,64.0,-23.0,30.04,SW,225,0.0,4.0,0,0.00,,,0.00,Rainwise IP-100,2013-08-12 07:03:00,
2013-08-12 03:08:00,63.0,54.0,30.04,SW,225,2.0,5.0,74,0.00,,,0.00,Rainwise IP-100,2013-08-12 07:08:00,
2013-08-12 03:13:00,64.0,62.0,30.04,SW,225,0.0,5.0,95,0.00,,,0.00,Rainwise IP-100,2013-08-12 07:13:00,
2013-08-12 03:18:00,64.0,54.0,30.04,SSW,202,0.0,5.0,72,0.00,,,0.00,Rainwise IP-100,2013-08-12 07:18:00,
2013-08-12 03:23:00,64.0,64.0,30.04,SW,225,0.0,3.0,100,0.00,,,0.00,Rainwise IP-100,2013-08-12 07:23:00,
2013-08-12 03:28:00,64.0,62.0,30.04,SSW,202,0.0,3.0,94,0.00,,,0.00,Rainwise IP-100,2013-08-12 07:28:00,
2013-08-12 03:33:00,64.0,63.0,30.04,SSW,202,0.0,4.0,96,0.00,,,0.00,Rainwise IP-100,2013-08-12 07:33:00,
2013-08-12 03:38:00,64.0,59.0,30.04,SW,225,0.0,5.0,85,0.00,,,0.00,Rainwise IP-100,2013-08-12 07:38:00,
2013-08-12 03:43:00,64.0,63.0,30.04,SSW,202,1.0,4.0,96,0.00,,,0.00,Rainwise IP-100,2013-08-12 07:43:00,
2013-08-12 03:49:00,64.0,61.0,30.04,South,180,0.0,4.0,91,0.00,,,0.00,Rainwise IP-100,2013-08-12 07:49:00,
2013-08-12 03:54:00,64.0,63.0,30.04,SSW,202,0.0,5.0,99,0.00,,,0.00,Rainwise IP-100,2013-08-12 07:54:00,
2013-08-12 03:59:00,64.0,61.0,30.04,SSW,202,0.0,3.0,91,0.00,,,0.00,Rainwise IP-100,2013-08-12 07:59:00,
2013-08-12 04:04:00,64.0,63.0,30.04,South,180,0.0,2.0,96,0.00,,,0.00,Rainwise IP-100,2013-08-12 08:04:00,
2013-08-12 04:09:00,64.0,61.0,30.04,SSW,202,0.0,2.0,90,0.00,,,0.00,Rainwise IP-100,2013-08-12 08:09:00,
2013-08-12 04:14:00,64.0,61.0,30.04,SW,225,0.0,2.0,91,0.00,,,0.00,Rainwise IP-100,2013-08-12 08:14:00,
2013-08-12 04:19:00,64.0,61.0,30.04,SSW,202,0.0,2.0,92,0.00,,,0.00,Rainwise IP-100,2013-08-12 08:19:00,
2013-08-12 04:24:00,64.0,63.0,30.04,SSW,202,0.0,4.0,96,0.00,,,0.00,Rainwise IP-100,2013-08-12 08:24:00,
2013-08-12 04:29:00,64.0,62.0,30.04,SSW,202,0.0,3.0,93,0.00,,,0.00,Rainwise IP-100,2013-08-12 08:29:00,
2013-08-12 04:34:00,64.0,64.0,30.04,SW,225,0.0,3.0,100,0.00,,,0.00,Rainwise IP-100,2013-08-12 08:34:00,
2013-08-12 04:39:00,64.0,64.0,30.04,SW,225,0.0,5.0,100,0.00,,,0.00,Rainwise IP-100,2013-08-12 08:39:00,
2013-08-12 04:44:00,64.0,64.0,30.03,SW,225,0.0,6.0,100,0.00,,,0.00,Rainwise IP-100,2013-08-12 08:44:00,
2013-08-12 04:49:00,64.0,64.0,30.03,WNW,292,0.0,4.0,100,0.00,,,0.00,Rainwise IP-100,2013-08-12 08:49:00,
2013-08-12 04:54:00,64.0,64.0,30.04,WSW,247,1.0,7.0,100,0.00,,,0.00,Rainwise IP-100,2013-08-12 08:54:00,
2013-08-12 04:59:00,64.0,64.0,30.04,SSW,202,0.0,5.0,100,0.00,,,0.00,Rainwise IP-100,2013-08-12 08:59:00,
2013-08-12 05:05:00,65.0,65.0,30.03,SW,225,4.0,5.0,100,0.00,,,0.00,Rainwise IP-100,2013-08-12 09:05:00,
2013-08-12 05:10:00,65.0,65.0,30.03,SSW,202,0.0,6.0,100,0.00,,,0.00,Rainwise IP-100,2013-08-12 09:10:00,
2013-08-12 05:15:00,65.0,65.0,30.03,SW,225,1.0,5.0,100,0.00,,,0.00,Rainwise IP-100,2013-08-12 09:15:00,
2013-08-12 05:20:00,65.0,65.0,30.03,SW,225,0.0,3.0,100,0.00,,,0.00,Rainwise IP-100,2013-08-12 09:20:00,
2013-08-12 05:25:00,65.0,65.0,30.04,SSW,202,0.0,6.0,100,0.00,,,0.00,Rainwise IP-100,2013-08-12 09:25:00,
2013-08-12 05:30:00,65.0,65.0,30.04,SSW,202,2.0,4.0,100,0.00,,,0.00,Rainwise IP-100,2013-08-12 09:30:00,
2013-08-12 05:35:00,64.0,64.0,30.03,SW,225,0.0,3.0,100,0.00,,,0.00,Rainwise IP-100,2013-08-12 09:35:00,
2013-08-12 05:40:00,64.0,64.0,30.03,SSW,202,0.0,3.0,100,0.00,,,0.00,Rainwise IP-100,2013-08-12 09:40:00,
2013-08-12 05:45:00,64.0,64.0,30.03,WSW,247,0.0,6.0,100,0.00,,,0.00,Rainwise IP-100,2013-08-12 09:45:00,
2013-08-12 05:50:00,65.0,65.0,30.03,SSW,202,6.0,7.0,100,0.00,,,0.00,Rainwise IP-100,2013-08-12 09:50:00,
2013-08-12 05:55:00,65.0,65.0,30.04,SW,225,3.0,8.0,100,0.00,,,0.00,Rainwise IP-100,2013-08-12 09:55:00,
2013-08-12 06:00:00,65.0,65.0,30.04,South,180,2.0,8.0,100,0.00,,,0.00,Rainwise IP-100,2013-08-12 10:00:00,
2013-08-12 06:05:00,65.0,65.0,30.04,SSW,202,6.0,9.0,100,0.00,,,0.00,Rainwise IP-100,2013-08-12 10:05:00,
2013-08-12 06:10:00,65.0,65.0,30.04,SW,225,1.0,7.0,100,0.00,,,0.00,Rainwise IP-100,2013-08-12 10:10:00,
2013-08-12 06:15:00,65.0,65.0,30.03,SSW,202,4.0,7.0,100,0.00,,,0.00,Rainwise IP-100,2013-08-12 10:15:00,
2013-08-12 06:21:00,66.0,66.0,30.03,SSW,202,5.0,7.0,100,0.00,,,0.00,Rainwise IP-100,2013-08-12 10:21:00,
2013-08-12 06:26:00,66.0,66.0,30.03,SW,225,2.0,8.0,100,0.00,,,0.00,Rainwise IP-100,2013-08-12 10:26:00,
2013-08-12 06:31:00,66.0,66.0,30.03,SSW,202,6.0,9.0,100,0.00,,,0.00,Rainwise IP-100,2013-08-12 10:31:00,
2013-08-12 06:36:00,66.0,66.0,30.03,SW,225,2.0,9.0,100,0.00,,,0.00,Rainwise IP-100,2013-08-12 10:36:00,
2013-08-12 06:41:00,66.0,66.0,30.03,NW,315,0.0,10.0,100,0.00,,,0.00,Rainwise IP-100,2013-08-12 10:41:00,
2013-08-12 06:46:00,66.0,66.0,30.03,SW,225,2.0,8.0,100,0.00,,,0.00,Rainwise IP-100,2013-08-12 10:46:00,
2013-08-12 06:51:00,67.0,67.0,30.03,West,270,5.0,7.0,100,0.00,,,0.00,Rainwise IP-100,2013-08-12 10:51:00,
2013-08-12 06:56:00,67.0,67.0,30.03,SW,225,3.0,8.0,100,0.00,,,0.00,Rainwise IP-100,2013-08-12 10:56:00,
2013-08-12 07:01:00,67.0,67.0,30.03,SW,225,1.0,6.0,100,0.00,,,0.00,Rainwise IP-100,2013-08-12 11:01:00,
2013-08-12 07:06:00,67.0,67.0,30.04,SW,225,0.0,8.0,100,0.00,,,0.00,Rainwise IP-100,2013-08-12 11:06:00,
2013-08-12 07:11:00,67.0,67.0,30.04,SW,225,3.0,6.0,100,0.00,,,0.00,Rainwise IP-100,2013-08-12 11:11:00,
2013-08-12 07:16:00,67.0,67.0,30.04,SW,225,9.0,11.0,100,0.00,,,0.00,Rainwise IP-100,2013-08-12 11:16:00,
2013-08-12 07:21:00,67.0,67.0,30.04,South,180,2.0,10.0,100,0.00,,,0.00,Rainwise IP-100,2013-08-12 11:21:00,
2013-08-12 07:26:00,67.0,67.0,30.04,SW,225,0.0,7.0,100,0.00,,,0.00,Rainwise IP-100,2013-08-12 11:26:00,
2013-08-12 07:31:00,67.0,67.0,30.04,South,180,1.0,6.0,100,0.00,,,0.00,Rainwise IP-100,2013-08-12 11:31:00,
2013-08-12 07:37:00,67.0,67.0,30.04,West,270,1.0,6.0,100,0.00,,,0.00,Rainwise IP-100,2013-08-12 11:37:00,
2013-08-12 07:42:00,67.0,67.0,30.04,SSW,202,2.0,9.0,100,0.00,,,0.00,Rainwise IP-100,2013-08-12 11:42:00,
2013-08-12 07:47:00,67.0,67.0,30.04,South,180,0.0,7.0,100,0.00,,,0.00,Rainwise IP-100,2013-08-12 11:47:00,
2013-08-12 07:52:00,67.0,67.0,30.04,South,180,0.0,12.0,100,0.00,,,0.00,Rainwise IP-100,2013-08-12 11:52:00,
2013-08-12 07:57:00,67.0,67.0,30.03,SW,225,0.0,8.0,100,0.00,,,0.00,Rainwise IP-100,2013-08-12 11:57:00,
2013-08-12 08:02:00,67.0,67.0,30.03,West,270,2.0,10.0,100,0.00,,,0.00,Rainwise IP-100,2013-08-12 12:02:00,
2013-08-12 08:07:00,67.0,67.0,30.03,NNW,337,3.0,7.0,100,0.00,,,0.00,Rainwise IP-100,2013-08-12 12:07:00,
2013-08-12 08:12:00,67.0,67.0,30.03,WSW,247,0.0,10.0,100,0.00,,,0.00,Rainwise IP-100,2013-08-12 12:12:00,
2013-08-12 08:17:00,67.0,67.0,30.03,WSW,247,0.0,3.0,100,0.00,,,0.00,Rainwise IP-100,2013-08-12 12:17:00,
2013-08-12 08:22:00,67.0,67.0,30.03,SW,225,0.0,4.0,100,0.00,,,0.00,Rainwise IP-100,2013-08-12 12:22:00,
2013-08-12 08:27:00,67.0,67.0,30.03,SW,225,1.0,6.0,100,0.00,,,0.00,Rainwise IP-100,2013-08-12 12:27:00,
2013-08-12 08:32:00,67.0,67.0,30.03,SW,225,1.0,3.0,100,0.00,,,0.00,Rainwise IP-100,2013-08-12 12:32:00,
2013-08-12 08:37:00,67.0,67.0,30.02,South,180,0.0,6.0,100,0.00,,,0.00,Rainwise IP-100,2013-08-12 12:37:00,
2013-08-12 08:42:00,67.0,67.0,30.02,SW,225,2.0,6.0,100,0.00,,,0.00,Rainwise IP-100,2013-08-12 12:42:00,
2013-08-12 08:47:00,67.0,67.0,30.02,SW,225,3.0,6.0,100,0.00,,,0.00,Rainwise IP-100,2013-08-12 12:47:00,
2013-08-12 08:53:00,68.0,68.0,30.02,SW,225,3.0,7.0,100,0.00,,,0.00,Rainwise IP-100,2013-08-12 12:53:00,
2013-08-12 08:58:00,68.0,68.0,30.02,SSW,202,4.0,7.0,100,0.00,,,0.00,Rainwise IP-100,2013-08-12 12:58:00,
2013-08-12 09:03:00,68.0,68.0,30.02,SW,225,2.0,7.0,100,0.00,,,0.00,Rainwise IP-100,2013-08-12 13:03:00,
2013-08-12 09:08:00,68.0,68.0,30.02,SW,225,4.0,9.0,100,0.00,,,0.00,Rainwise IP-100,2013-08-12 13:08:00,
2013-08-12 09:13:00,68.0,68.0,30.02,WSW,247,1.0,7.0,100,0.00,,,0.00,Rainwise IP-100,2013-08-12 13:13:00,
2013-08-12 09:18:00,68.0,68.0,30.02,South,180,0.0,10.0,100,0.00,,,0.00,Rainwise IP-100,2013-08-12 13:18:00,
2013-08-12 09:23:00,69.0,69.0,30.01,SW,225,1.0,10.0,100,0.00,,,0.00,Rainwise IP-100,2013-08-12 13:23:00,
2013-08-12 09:28:00,69.0,69.0,30.01,SSW,202,5.0,7.0,100,0.00,,,0.00,Rainwise IP-100,2013-08-12 13:28:00,
2013-08-12 09:33:00,69.0,69.0,30.01,SSW,202,7.0,8.0,100,0.00,,,0.00,Rainwise IP-100,2013-08-12 13:33:00,
2013-08-12 09:38:00,69.0,69.0,30.01,SSW,202,2.0,7.0,100,0.00,,,0.00,Rainwise IP-100,2013-08-12 13:38:00,
2013-08-12 09:43:00,70.0,70.0,30.01,SSW,202,6.0,9.0,100,0.00,,,0.00,Rainwise IP-100,2013-08-12 13:43:00,
2013-08-12 09:48:00,70.0,70.0,30.01,SSW,202,6.0,10.0,100,0.00,,,0.00,Rainwise IP-100,2013-08-12 13:48:00,
2013-08-12 09:53:00,70.0,70.0,30.02,SW,225,1.0,12.0,100,0.00,,,0.00,Rainwise IP-100,2013-08-12 13:53:00,
2013-08-12 09:58:00,69.0,69.0,30.02,SW,225,7.0,14.0,100,0.00,,,0.00,Rainwise IP-100,2013-08-12 13:58:00,
2013-08-12 10:03:00,69.0,69.0,30.03,South,180,1.0,10.0,100,0.00,,,0.00,Rainwise IP-100,2013-08-12 14:03:00,
2013-08-12 10:09:00,69.0,69.0,30.03,SW,225,6.0,9.0,100,0.00,,,0.00,Rainwise IP-100,2013-08-12 14:09:00,
2013-08-12 10:14:00,69.0,69.0,30.03,SW,225,0.0,6.0,100,0.00,,,0.00,Rainwise IP-100,2013-08-12 14:14:00,
2013-08-12 10:19:00,69.0,69.0,30.03,South,180,0.0,6.0,100,0.00,,,0.00,Rainwise IP-100,2013-08-12 14:19:00,
2013-08-12 10:24:00,68.0,68.0,30.02,South,180,2.0,7.0,100,0.00,,,0.00,Rainwise IP-100,2013-08-12 14:24:00,
2013-08-12 10:29:00,68.0,68.0,30.02,SW,225,3.0,7.0,100,0.00,,,0.00,Rainwise IP-100,2013-08-12 14:29:00,
2013-08-12 10:34:00,68.0,68.0,30.03,South,180,2.0,10.0,100,0.00,,,0.00,Rainwise IP-100,2013-08-12 14:34:00,
2013-08-12 10:39:00,69.0,69.0,30.03,SW,225,0.0,7.0,100,0.00,,,0.00,Rainwise IP-100,2013-08-12 14:39:00,
2013-08-12 10:44:00,70.0,70.0,30.02,SSW,202,4.0,6.0,100,0.00,,,0.00,Rainwise IP-100,2013-08-12 14:44:00,
2013-08-12 10:49:00,71.0,71.0,30.02,SW,225,6.0,11.0,100,0.00,,,0.00,Rainwise IP-100,2013-08-12 14:49:00,
2013-08-12 10:54:00,71.0,71.0,30.02,SW,225,7.0,12.0,100,0.00,,,0.00,Rainwise IP-100,2013-08-12 14:54:00,
2013-08-12 10:59:00,71.0,71.0,30.02,WSW,247,6.0,10.0,100,0.00,,,0.00,Rainwise IP-100,2013-08-12 14:59:00,
2013-08-12 11:04:00,72.0,72.0,30.01,SW,225,2.0,9.0,100,0.00,,,0.00,Rainwise IP-100,2013-08-12 15:04:00,
2013-08-12 11:09:00,71.0,71.0,30.01,South,180,1.0,11.0,100,0.00,,,0.00,Rainwise IP-100,2013-08-12 15:09:00,
2013-08-12 11:14:00,71.0,71.0,30.00,South,180,0.0,6.0,100,0.00,,,0.00,Rainwise IP-100,2013-08-12 15:14:00,
2013-08-12 11:19:00,71.0,71.0,30.00,South,180,6.0,10.0,100,0.00,,,0.00,Rainwise IP-100,2013-08-12 15:19:00,
2013-08-12 11:25:00,72.0,72.0,30.01,SSW,202,5.0,11.0,100,0.00,,,0.00,Rainwise IP-100,2013-08-12 15:25:00,
2013-08-12 11:30:00,72.0,72.0,30.01,SSW,202,7.0,14.0,100,0.00,,,0.00,Rainwise IP-100,2013-08-12 15:30:00,
2013-08-12 11:35:00,72.0,72.0,30.00,SW,225,6.0,9.0,100,0.00,,,0.00,Rainwise IP-100,2013-08-12 15:35:00,
2013-08-12 11:40:00,72.0,72.0,30.00,SSW,202,9.0,13.0,100,0.00,,,0.00,Rainwise IP-100,2013-08-12 15:40:00,
2013-08-12 11:45:00,72.0,72.0,30.00,SW,225,6.0,13.0,100,0.00,,,0.00,Rainwise IP-100,2013-08-12 15:45:00,
2013-08-12 11:50:00,73.0,73.0,30.00,WNW,292,3.0,10.0,100,0.00,,,0.00,Rainwise IP-100,2013-08-12 15:50:00,
2013-08-12 11:55:00,73.0,73.0,30.00,South,180,5.0,10.0,100,0.00,,,0.00,Rainwise IP-100,2013-08-12 15:55:00,
2013-08-12 12:00:00,73.0,73.0,30.00,SW,225,4.0,15.0,100,0.00,,,0.00,Rainwise IP-100,2013-08-12 16:00:00,
2013-08-12 12:05:00,72.0,72.0,30.00,South,180,4.0,12.0,100,0.00,,,0.00,Rainwise IP-100,2013-08-12 16:05:00,
2013-08-12 12:10:00,72.0,72.0,30.00,South,180,7.0,16.0,100,0.00,,,0.00,Rainwise IP-100,2013-08-12 16:10:00,
2013-08-12 12:15:00,72.0,72.0,30.00,SSW,202,11.0,21.0,100,0.00,,,0.00,Rainwise IP-100,2013-08-12 16:15:00,
2013-08-12 12:20:00,72.0,72.0,30.00,SSW,202,10.0,15.0,100,0.00,,,0.00,Rainwise IP-100,2013-08-12 16:20:00,
2013-08-12 12:25:00,72.0,72.0,30.00,South,180,6.0,13.0,100,0.00,,,0.00,Rainwise IP-100,2013-08-12 16:25:00,
2013-08-12 12:30:00,72.0,72.0,30.00,SW,225,5.0,14.0,100,0.00,,,0.00,Rainwise IP-100,2013-08-12 16:30:00,
2013-08-12 12:35:00,72.0,72.0,30.00,South,180,9.0,12.0,100,0.00,,,0.00,Rainwise IP-100,2013-08-12 16:35:00,
2013-08-12 12:41:00,72.0,72.0,30.00,South,180,9.0,16.0,100,0.00,,,0.00,Rainwise IP-100,2013-08-12 16:41:00,
2013-08-12 12:46:00,72.0,72.0,29.99,SSW,202,9.0,15.0,100,0.00,,,0.00,Rainwise IP-100,2013-08-12 16:46:00,
2013-08-12 12:51:00,72.0,72.0,29.99,SW,225,4.0,13.0,100,0.00,,,0.00,Rainwise IP-100,2013-08-12 16:51:00,
2013-08-12 12:56:00,71.0,71.0,29.99,WSW,247,6.0,14.0,100,0.00,,,0.00,Rainwise IP-100,2013-08-12 16:56:00,
2013-08-12 13:01:00,71.0,71.0,29.99,SSW,202,5.0,12.0,100,0.00,,,0.00,Rainwise IP-100,2013-08-12 17:01:00,
2013-08-12 13:06:00,71.0,71.0,30.00,SSW,202,7.0,12.0,100,0.00,,,0.00,Rainwise IP-100,2013-08-12 17:06:00,
2013-08-12 13:11:00,71.0,71.0,30.00,South,180,7.0,11.0,100,0.00,,,0.00,Rainwise IP-100,2013-08-12 17:11:00,
2013-08-12 13:16:00,71.0,71.0,30.00,SW,225,4.0,10.0,100,0.00,,,0.00,Rainwise IP-100,2013-08-12 17:16:00,
2013-08-12 13:21:00,71.0,71.0,30.00,SW,225,5.0,10.0,100,0.00,,,0.00,Rainwise IP-100,2013-08-12 17:21:00,
2013-08-12 13:26:00,71.0,71.0,29.99,South,180,1.0,12.0,100,0.00,,,0.00,Rainwise IP-100,2013-08-12 17:26:00,
2013-08-12 13:31:00,71.0,71.0,29.99,SW,225,10.0,11.0,100,0.00,,,0.00,Rainwise IP-100,2013-08-12 17:31:00,
2013-08-12 13:36:00,71.0,71.0,29.99,South,180,2.0,16.0,100,0.00,,,0.00,Rainwise IP-100,2013-08-12 17:36:00,
2013-08-12 13:41:00,71.0,71.0,29.99,SSW,202,10.0,12.0,100,0.00,,,0.00,Rainwise IP-100,2013-08-12 17:41:00,
2013-08-12 13:46:00,71.0,71.0,29.99,SSW,202,2.0,13.0,100,0.00,,,0.00,Rainwise IP-100,2013-08-12 17:46:00,
2013-08-12 13:51:00,72.0,72.0,29.99,SSE,157,1.0,14.0,100,0.00,,,0.00,Rainwise IP-100,2013-08-12 17:51:00,
2013-08-12 13:57:00,72.0,72.0,29.98,SW,225,11.0,14.0,100,0.00,,,0.00,Rainwise IP-100,2013-08-12 17:57:00,
2013-08-12 14:02:00,72.0,72.0,29.98,WSW,247,4.0,14.0,100,0.00,,,0.00,Rainwise IP-100,2013-08-12 18:02:00,
2013-08-12 14:07:00,72.0,72.0,29.98,SW,225,8.0,17.0,100,0.00,,,0.00,Rainwise IP-100,2013-08-12 18:07:00,
2013-08-12 14:12:00,73.0,73.0,29.98,SW,225,9.0,15.0,100,0.00,,,0.00,Rainwise IP-100,2013-08-12 18:12:00,
2013-08-12 14:17:00,73.0,73.0,29.98,SSW,202,8.0,16.0,100,0.00,,,0.00,Rainwise IP-100,2013-08-12 18:17:00,
2013-08-12 14:22:00,74.0,74.0,29.98,SW,225,6.0,16.0,100,0.00,,,0.00,Rainwise IP-100,2013-08-12 18:22:00,
2013-08-12 14:27:00,74.0,74.0,29.96,SW,225,5.0,16.0,100,0.00,,,0.00,Rainwise IP-100,2013-08-12 18:27:00,
2013-08-12 14:32:00,73.0,73.0,29.96,South,180,3.0,11.0,100,0.00,,,0.00,Rainwise IP-100,2013-08-12 18:32:00,
2013-08-12 14:37:00,73.0,73.0,29.97,SSW,202,12.0,12.0,100,0.00,,,0.00,Rainwise IP-100,2013-08-12 18:37:00,
2013-08-12 14:42:00,72.0,72.0,29.97,SW,225,12.0,17.0,100,0.00,,,0.00,Rainwise IP-100,2013-08-12 18:42:00,
2013-08-12 14:47:00,72.0,72.0,29.97,South,180,0.0,15.0,100,0.00,,,0.00,Rainwise IP-100,2013-08-12 18:47:00,
2013-08-12 14:52:00,72.0,72.0,29.97,SSW,202,8.0,11.0,100,0.00,,,0.00,Rainwise IP-100,2013-08-12 18:52:00,
2013-08-12 14:57:00,72.0,72.0,29.97,SW,225,3.0,13.0,100,0.00,,,0.00,Rainwise IP-100,2013-08-12 18:57:00,
2013-08-12 15:02:00,72.0,72.0,29.97,SSW,202,3.0,11.0,100,0.00,,,0.00,Rainwise IP-100,2013-08-12 19:02:00,
2013-08-12 15:07:00,72.0,-23.0,29.96,South,180,7.0,15.0,0,0.00,,,0.00,Rainwise IP-100,2013-08-12 19:07:00,
2013-08-12 15:13:00,73.0,-23.0,29.96,South,180,3.0,15.0,0,0.00,,,0.00,Rainwise IP-100,2013-08-12 19:13:00,
2013-08-12 15:18:00,73.0,-23.0,29.96,SSW,202,0.0,11.0,0,0.00,,,0.00,Rainwise IP-100,2013-08-12 19:18:00,
2013-08-12 15:23:00,73.0,-23.0,29.96,SW,225,7.0,14.0,0,0.00,,,0.00,Rainwise IP-100,2013-08-12 19:23:00,
2013-08-12 15:28:00,73.0,-23.0,29.96,South,180,2.0,13.0,0,0.00,,,0.00,Rainwise IP-100,2013-08-12 19:28:00,
2013-08-12 15:33:00,73.0,-23.0,29.96,SE,135,6.0,16.0,0,0.00,,,0.00,Rainwise IP-100,2013-08-12 19:33:00,
2013-08-12 15:38:00,73.0,-23.0,29.96,SW,225,6.0,16.0,0,0.00,,,0.00,Rainwise IP-100,2013-08-12 19:38:00,
2013-08-12 15:43:00,73.0,-23.0,29.96,SW,225,0.0,13.0,0,0.00,,,0.00,Rainwise IP-100,2013-08-12 19:43:00,
2013-08-12 15:48:00,74.0,-23.0,29.96,SW,225,9.0,12.0,0,0.00,,,0.00,Rainwise IP-100,2013-08-12 19:48:00,
2013-08-12 15:53:00,73.0,-23.0,29.96,WSW,247,12.0,15.0,0,0.00,,,0.00,Rainwise IP-100,2013-08-12 19:53:00,
2013-08-12 15:58:00,73.0,-23.0,29.96,SSW,202,5.0,12.0,0,0.00,,,0.00,Rainwise IP-100,2013-08-12 19:58:00,
2013-08-12 16:03:00,73.0,-23.0,29.95,WSW,247,11.0,14.0,0,0.00,,,0.00,Rainwise IP-100,2013-08-12 20:03:00,
2013-08-12 16:08:00,73.0,-23.0,29.95,SSW,202,0.0,12.0,0,0.00,,,0.00,Rainwise IP-100,2013-08-12 20:08:00,
2013-08-12 16:13:00,73.0,-23.0,29.95,SW,225,4.0,15.0,0,0.00,,,0.00,Rainwise IP-100,2013-08-12 20:13:00,
2013-08-12 16:18:00,72.0,-23.0,29.95,SSW,202,0.0,11.0,0,0.00,,,0.00,Rainwise IP-100,2013-08-12 20:18:00,
2013-08-12 16:23:00,72.0,-23.0,29.96,SSW,202,6.0,7.0,0,0.00,,,0.00,Rainwise IP-100,2013-08-12 20:23:00,
2013-08-12 16:29:00,72.0,-23.0,29.96,South,180,5.0,13.0,0,0.00,,,0.00,Rainwise IP-100,2013-08-12 20:29:00,
2013-08-12 16:34:00,72.0,-23.0,29.95,ENE,67,0.0,10.0,0,0.00,,,0.00,Rainwise IP-100,2013-08-12 20:34:00,
2013-08-12 16:39:00,72.0,-23.0,29.95,South,180,1.0,12.0,0,0.00,,,0.00,Rainwise IP-100,2013-08-12 20:39:00,
2013-08-12 16:44:00,71.0,-23.0,29.95,SSW,202,8.0,13.0,0,0.00,,,0.00,Rainwise IP-100,2013-08-12 20:44:00,
2013-08-12 16:49:00,71.0,-23.0,29.95,SSW,202,3.0,12.0,0,0.00,,,0.00,Rainwise IP-100,2013-08-12 20:49:00,
2013-08-12 16:54:00,71.0,-23.0,29.95,SSW,202,2.0,10.0,0,0.00,,,0.00,Rainwise IP-100,2013-08-12 20:54:00,
2013-08-12 16:59:00,71.0,-23.0,29.95,SW,225,0.0,10.0,0,0.00,,,0.00,Rainwise IP-100,2013-08-12 20:59:00,
2013-08-12 17:04:00,70.0,-23.0,29.96,NW,315,0.0,7.0,0,0.00,,,0.00,Rainwise IP-100,2013-08-12 21:04:00,
2013-08-12 17:09:00,70.0,-23.0,29.96,North,360,0.0,8.0,0,0.00,,,0.00,Rainwise IP-100,2013-08-12 21:09:00,
2013-08-12 17:14:00,70.0,-23.0,29.96,WNW,292,3.0,7.0,0,0.00,,,0.00,Rainwise IP-100,2013-08-12 21:14:00,
2013-08-12 17:19:00,69.0,-23.0,29.96,WNW,292,0.0,6.0,0,0.00,,,0.00,Rainwise IP-100,2013-08-12 21:19:00,
2013-08-12 17:24:00,69.0,-23.0,29.96,SSW,202,6.0,6.0,0,0.00,,,0.00,Rainwise IP-100,2013-08-12 21:24:00,
2013-08-12 17:29:00,69.0,-23.0,29.96,West,270,4.0,8.0,0,0.00,,,0.00,Rainwise IP-100,2013-08-12 21:29:00,
2013-08-12 17:34:00,69.0,-23.0,29.96,SW,225,0.0,4.0,0,0.00,,,0.00,Rainwise IP-100,2013-08-12 21:34:00,
2013-08-12 17:39:00,69.0,-23.0,29.96,West,270,0.0,3.0,0,0.00,,,0.00,Rainwise IP-100,2013-08-12 21:39:00,
2013-08-12 17:45:00,70.0,-23.0,29.96,WSW,247,0.0,4.0,0,0.00,,,0.00,Rainwise IP-100,2013-08-12 21:45:00,
2013-08-12 17:50:00,70.0,-23.0,29.96,NW,315,5.0,6.0,0,0.00,,,0.00,Rainwise IP-100,2013-08-12 21:50:00,
2013-08-12 17:55:00,70.0,-23.0,29.95,SSW,202,0.0,7.0,0,0.00,,,0.00,Rainwise IP-100,2013-08-12 21:55:00,
2013-08-12 18:00:00,70.0,-23.0,29.95,WNW,292,3.0,6.0,0,0.00,,,0.00,Rainwise IP-100,2013-08-12 22:00:00,
2013-08-12 18:05:00,71.0,-23.0,29.96,SW,225,0.0,8.0,0,0.00,,,0.00,Rainwise IP-100,2013-08-12 22:05:00,
2013-08-12 18:10:00,71.0,-23.0,29.96,SW,225,2.0,7.0,0,0.00,,,0.00,Rainwise IP-100,2013-08-12 22:10:00,
2013-08-12 18:15:00,71.0,-23.0,29.95,West,270,5.0,5.0,0,0.00,,,0.00,Rainwise IP-100,2013-08-12 22:15:00,
2013-08-12 18:20:00,71.0,-23.0,29.95,SW,225,1.0,8.0,0,0.00,,,0.00,Rainwise IP-100,2013-08-12 22:20:00,
2013-08-12 18:25:00,71.0,-23.0,29.95,NW,315,0.0,7.0,0,0.00,,,0.00,Rainwise IP-100,2013-08-12 22:25:00,
2013-08-12 18:30:00,71.0,-23.0,29.95,SW,225,2.0,6.0,0,0.00,,,0.00,Rainwise IP-100,2013-08-12 22:30:00,
2013-08-12 18:35:00,71.0,-23.0,29.95,SW,225,3.0,6.0,0,0.00,,,0.00,Rainwise IP-100,2013-08-12 22:35:00,
2013-08-12 18:40:00,71.0,-23.0,29.95,SW,225,0.0,6.0,0,0.00,,,0.00,Rainwise IP-100,2013-08-12 22:40:00,
2013-08-12 18:45:00,71.0,-23.0,29.95,West,270,0.0,6.0,0,0.00,,,0.00,Rainwise IP-100,2013-08-12 22:45:00,
2013-08-12 18:50:00,70.0,-23.0,29.95,WSW,247,7.0,9.0,0,0.00,,,0.00,Rainwise IP-100,2013-08-12 22:50:00,
2013-08-12 18:55:00,70.0,-23.0,29.96,SSE,157,0.0,9.0,0,0.00,,,0.00,Rainwise IP-100,2013-08-12 22:55:00,
2013-08-12 19:01:00,70.0,-23.0,29.96,SW,225,2.0,7.0,0,0.00,,,0.00,Rainwise IP-100,2013-08-12 23:01:00,
2013-08-12 19:06:00,70.0,-23.0,29.95,SSW,202,1.0,6.0,0,0.00,,,0.00,Rainwise IP-100,2013-08-12 23:06:00,
2013-08-12 19:11:00,70.0,-23.0,29.95,SW,225,0.0,9.0,0,0.00,,,0.00,Rainwise IP-100,2013-08-12 23:11:00,
2013-08-12 19:16:00,70.0,-23.0,29.95,SW,225,0.0,6.0,0,0.00,,,0.00,Rainwise IP-100,2013-08-12 23:16:00,
2013-08-12 19:21:00,69.0,-23.0,29.95,SW,225,1.0,7.0,0,0.00,,,0.00,Rainwise IP-100,2013-08-12 23:21:00,
2013-08-12 19:26:00,69.0,-23.0,29.95,WSW,247,6.0,7.0,0,0.00,,,0.00,Rainwise IP-100,2013-08-12 23:26:00,
2013-08-12 19:31:00,69.0,-23.0,29.95,SW,225,2.0,6.0,0,0.00,,,0.00,Rainwise IP-100,2013-08-12 23:31:00,
2013-08-12 19:36:00,69.0,-23.0,29.96,WSW,247,1.0,6.0,0,0.00,,,0.00,Rainwise IP-100,2013-08-12 23:36:00,
2013-08-12 19:41:00,69.0,-23.0,29.96,SW,225,0.0,6.0,0,0.00,,,0.00,Rainwise IP-100,2013-08-12 23:41:00,
2013-08-12 19:46:00,69.0,-23.0,29.96,WSW,247,0.0,6.0,0,0.00,,,0.00,Rainwise IP-100,2013-08-12 23:46:00,
2013-08-12 19:51:00,69.0,-23.0,29.96,WSW,247,0.0,6.0,0,0.00,,,0.00,Rainwise IP-100,2013-08-12 23:51:00,
2013-08-12 19:56:00,69.0,-23.0,29.96,SSW,202,2.0,6.0,0,0.00,,,0.00,Rainwise IP-100,2013-08-12 23:56:00,
2013-08-12 20:01:00,69.0,-23.0,29.96,SW,225,0.0,7.0,0,0.00,,,0.00,Rainwise IP-100,2013-08-13 00:01:00,
2013-08-12 20:06:00,69.0,-23.0,29.94,SW,225,2.0,3.0,0,0.00,,,0.00,Rainwise IP-100,2013-08-13 00:06:00,
2013-08-12 20:11:00,69.0,-23.0,29.94,SW,225,3.0,5.0,0,0.00,,,0.00,Rainwise IP-100,2013-08-13 00:11:00,
2013-08-12 20:17:00,69.0,-23.0,29.95,SW,225,2.0,4.0,0,0.00,,,0.00,Rainwise IP-100,2013-08-13 00:17:00,
2013-08-12 20:22:00,69.0,-23.0,29.95,SW,225,3.0,4.0,0,0.00,,,0.00,Rainwise IP-100,2013-08-13 00:22:00,
2013-08-12 20:27:00,69.0,-23.0,29.95,SW,225,2.0,5.0,0,0.00,,,0.00,Rainwise IP-100,2013-08-13 00:27:00,
2013-08-12 20:32:00,69.0,-23.0,29.95,SW,225,2.0,5.0,0,0.00,,,0.00,Rainwise IP-100,2013-08-13 00:32:00,
2013-08-12 20:37:00,69.0,-23.0,29.95,SW,225,2.0,6.0,0,0.00,,,0.00,Rainwise IP-100,2013-08-13 00:37:00,
2013-08-12 20:42:00,69.0,-23.0,29.95,SSW,202,0.0,6.0,0,0.00,,,0.00,Rainwise IP-100,2013-08-13 00:42:00,
2013-08-12 20:47:00,69.0,-23.0,29.94,SSW,202,0.0,9.0,0,0.00,,,0.00,Rainwise IP-100,2013-08-13 00:47:00,
2013-08-12 20:52:00,69.0,-23.0,29.94,SW,225,2.0,8.0,0,0.00,,,0.00,Rainwise IP-100,2013-08-13 00:52:00,
2013-08-12 20:57:00,69.0,-23.0,29.95,South,180,4.0,5.0,0,0.00,,,0.00,Rainwise IP-100,2013-08-13 00:57:00,
2013-08-12 21:02:00,69.0,-23.0,29.95,South,180,0.0,6.0,0,0.00,,,0.00,Rainwise IP-100,2013-08-13 01:02:00,
2013-08-12 21:07:00,69.0,-23.0,29.95,SSE,157,0.0,5.0,0,0.00,,,0.00,Rainwise IP-100,2013-08-13 01:07:00,
2013-08-12 21:12:00,69.0,-23.0,29.95,South,180,2.0,3.0,0,0.00,,,0.00,Rainwise IP-100,2013-08-13 01:12:00,
2013-08-12 21:17:00,69.0,-23.0,29.95,SE,135,0.0,6.0,0,0.00,,,0.00,Rainwise IP-100,2013-08-13 01:17:00,
2013-08-12 21:22:00,69.0,-23.0,29.95,South,180,2.0,6.0,0,0.00,,,0.00,Rainwise IP-100,2013-08-13 01:22:00,
2013-08-12 21:27:00,69.0,69.0,29.94,South,180,0.0,7.0,100,0.00,,,0.00,Rainwise IP-100,2013-08-13 01:27:00,
2013-08-12 21:33:00,69.0,69.0,29.94,SSE,157,0.0,5.0,100,0.00,,,0.00,Rainwise IP-100,2013-08-13 01:33:00,
2013-08-12 21:38:00,69.0,69.0,29.94,SSE,157,0.0,6.0,100,0.00,,,0.00,Rainwise IP-100,2013-08-13 01:38:00,
2013-08-12 21:43:00,69.0,69.0,29.94,SW,225,2.0,6.0,100,0.00,,,0.00,Rainwise IP-100,2013-08-13 01:43:00,
2013-08-12 21:48:00,69.0,69.0,29.94,South,180,0.0,7.0,100,0.00,,,0.00,Rainwise IP-100,2013-08-13 01:48:00,
2013-08-12 21:53:00,69.0,69.0,29.93,SW,225,1.0,4.0,100,0.00,,,0.00,Rainwise IP-100,2013-08-13 01:53:00,
2013-08-12 21:58:00,69.0,69.0,29.93,SSW,202,0.0,7.0,100,0.00,,,0.00,Rainwise IP-100,2013-08-13 01:58:00,
2013-08-12 22:03:00,69.0,69.0,29.94,South,180,4.0,6.0,100,0.00,,,0.00,Rainwise IP-100,2013-08-13 02:03:00,
2013-08-12 22:08:00,69.0,69.0,29.94,SSW,202,0.0,4.0,100,0.00,,,0.00,Rainwise IP-100,2013-08-13 02:08:00,
2013-08-12 22:13:00,69.0,69.0,29.94,SSW,202,1.0,3.0,100,0.00,,,0.00,Rainwise IP-100,2013-08-13 02:13:00,
2013-08-12 22:18:00,69.0,69.0,29.94,SSW,202,1.0,4.0,100,0.00,,,0.00,Rainwise IP-100,2013-08-13 02:18:00,
2013-08-12 22:23:00,69.0,69.0,29.94,SW,225,0.0,4.0,100,0.00,,,0.00,Rainwise IP-100,2013-08-13 02:23:00,
2013-08-12 22:28:00,68.0,68.0,29.94,South,180,0.0,4.0,100,0.00,,,0.00,Rainwise IP-100,2013-08-13 02:28:00,
2013-08-12 22:33:00,69.0,67.0,29.93,South,180,2.0,3.0,96,0.00,,,0.00,Rainwise IP-100,2013-08-13 02:33:00,
2013-08-12 22:38:00,69.0,69.0,29.93,WSW,247,0.0,5.0,100,0.00,,,0.00,Rainwise IP-100,2013-08-13 02:38:00,
2013-08-12 22:43:00,69.0,69.0,29.93,SSW,202,0.0,5.0,100,0.00,,,0.00,Rainwise IP-100,2013-08-13 02:43:00,
2013-08-12 22:49:00,69.0,69.0,29.93,SSW,202,1.0,3.0,100,0.00,,,0.00,Rainwise IP-100,2013-08-13 02:49:00,
2013-08-12 22:54:00,69.0,69.0,29.93,SSW,202,1.0,6.0,100,0.00,,,0.00,Rainwise IP-100,2013-08-13 02:54:00,
2013-08-12 22:59:00,68.0,68.0,29.93,South,180,2.0,3.0,100,0.00,,,0.00,Rainwise IP-100,2013-08-13 02:59:00,
2013-08-12 23:04:00,68.0,68.0,29.93,SSW,202,0.0,5.0,100,0.00,,,0.00,Rainwise IP-100,2013-08-13 03:04:00,
2013-08-12 23:09:00,68.0,68.0,29.93,SSW,202,0.0,3.0,100,0.00,,,0.00,Rainwise IP-100,2013-08-13 03:09:00,
2013-08-12 23:14:00,68.0,68.0,29.94,SSW,202,0.0,2.0,100,0.00,,,0.00,Rainwise IP-100,2013-08-13 03:14:00,
2013-08-12 23:19:00,68.0,68.0,29.94,SSW,202,0.0,2.0,100,0.00,,,0.00,Rainwise IP-100,2013-08-13 03:19:00,
2013-08-12 23:24:00,68.0,68.0,29.93,SSW,202,0.0,3.0,100,0.00,,,0.00,Rainwise IP-100,2013-08-13 03:24:00,
2013-08-12 23:29:00,68.0,68.0,29.93,SSW,202,0.0,0.0,100,0.00,,,0.00,Rainwise IP-100,2013-08-13 03:29:00,
2013-08-12 23:34:00,68.0,68.0,29.93,SSW,202,0.0,0.0,100,0.00,,,0.00,Rainwise IP-100,2013-08-13 03:34:00,
2013-08-12 23:39:00,68.0,68.0,29.93,SSW,202,0.0,2.0,100,0.00,,,0.00,Rainwise IP-100,2013-08-13 03:39:00,
2013-08-12 23:44:00,67.0,67.0,29.92,SSW,202,0.0,0.0,100,0.00,,,0.00,Rainwise IP-100,2013-08-13 03:44:00,
2013-08-12 23:53:00,68.0,67.0,29.92,South,180,2.0,0.0,98,0.00,,,0.00,Rainwise IP-100,2013-08-13 03:53:00,
2013-08-12 23:58:00,68.0,68.0,29.92,SSW,202,1.0,3.0,100,0.00,,,0.00,Rainwise IP-100,2013-08-13 03:58:00,